sensor_id;sensor_type;location;lat;lon;timestamp;P1;durP1;ratioP1;P2;durP2;ratioP2
37527;SDS011;23372;52.050;4.810;2022-08-19T00:01:39;22.48;;;14.02;;
37527;SDS011;23372;52.050;4.810;2022-08-19T00:04:08;16.92;;;12.57;;
37527;SDS011;23372;52.050;4.810;2022-08-19T00:06:36;16.98;;;12.13;;
37527;SDS011;23372;52.050;4.810;2022-08-19T00:09:04;20.17;;;13.68;;
37527;SDS011;23372;52.050;4.810;2022-08-19T00:11:32;19.45;;;11.43;;
37527;SDS011;23372;52.050;4.810;2022-08-19T00:13:59;12.63;;;9.10;;
37527;SDS011;23372;52.050;4.810;2022-08-19T00:16:25;13.80;;;9.25;;
37527;SDS011;23372;52.050;4.810;2022-08-19T00:18:50;10.27;;;8.35;;
37527;SDS011;23372;52.050;4.810;2022-08-19T00:21:16;9.65;;;7.97;;
37527;SDS011;23372;52.050;4.810;2022-08-19T00:23:42;11.35;;;7.88;;
37527;SDS011;23372;52.050;4.810;2022-08-19T00:26:08;12.07;;;8.85;;
37527;SDS011;23372;52.050;4.810;2022-08-19T00:28:34;11.57;;;8.95;;
37527;SDS011;23372;52.050;4.810;2022-08-19T00:31:01;12.20;;;8.88;;
37527;SDS011;23372;52.050;4.810;2022-08-19T00:33:28;10.90;;;8.38;;
37527;SDS011;23372;52.050;4.810;2022-08-19T00:35:57;13.02;;;7.70;;
37527;SDS011;23372;52.050;4.810;2022-08-19T00:38:24;9.52;;;5.82;;
37527;SDS011;23372;52.050;4.810;2022-08-19T00:40:50;5.45;;;3.00;;
37527;SDS011;23372;52.050;4.810;2022-08-19T00:43:18;2.47;;;2.20;;
37527;SDS011;23372;52.050;4.810;2022-08-19T00:45:46;2.92;;;2.28;;
37527;SDS011;23372;52.050;4.810;2022-08-19T00:48:12;5.75;;;3.30;;
37527;SDS011;23372;52.050;4.810;2022-08-19T00:50:39;5.70;;;4.60;;
37527;SDS011;23372;52.050;4.810;2022-08-19T00:53:08;8.77;;;6.00;;
37527;SDS011;23372;52.050;4.810;2022-08-19T00:55:35;12.63;;;7.75;;
37527;SDS011;23372;52.050;4.810;2022-08-19T00:58:03;10.25;;;7.45;;
37527;SDS011;23372;52.050;4.810;2022-08-19T01:00:33;11.57;;;8.15;;
37527;SDS011;23372;52.050;4.810;2022-08-19T01:03:01;13.10;;;9.45;;
37527;SDS011;23372;52.050;4.810;2022-08-19T01:05:32;13.35;;;9.52;;
37527;SDS011;23372;52.050;4.810;2022-08-19T01:07:58;16.13;;;10.35;;
37527;SDS011;23372;52.050;4.810;2022-08-19T01:10:27;13.68;;;9.55;;
37527;SDS011;23372;52.050;4.810;2022-08-19T01:12:54;11.35;;;7.53;;
37527;SDS011;23372;52.050;4.810;2022-08-19T01:15:25;10.50;;;8.07;;
37527;SDS011;23372;52.050;4.810;2022-08-19T01:17:54;9.52;;;7.40;;
37527;SDS011;23372;52.050;4.810;2022-08-19T01:20:22;9.30;;;7.13;;
37527;SDS011;23372;52.050;4.810;2022-08-19T01:22:55;13.82;;;9.20;;
37527;SDS011;23372;52.050;4.810;2022-08-19T01:25:30;19.58;;;10.55;;
37527;SDS011;23372;52.050;4.810;2022-08-19T01:28:00;15.48;;;12.10;;
37527;SDS011;23372;52.050;4.810;2022-08-19T01:30:27;20.50;;;12.95;;
37527;SDS011;23372;52.050;4.810;2022-08-19T01:32:55;20.67;;;13.07;;
37527;SDS011;23372;52.050;4.810;2022-08-19T01:35:22;19.70;;;14.13;;
37527;SDS011;23372;52.050;4.810;2022-08-19T01:37:53;21.65;;;14.60;;
37527;SDS011;23372;52.050;4.810;2022-08-19T01:40:21;24.27;;;15.30;;
37527;SDS011;23372;52.050;4.810;2022-08-19T01:42:49;22.60;;;15.35;;
37527;SDS011;23372;52.050;4.810;2022-08-19T01:45:16;29.88;;;18.02;;
37527;SDS011;23372;52.050;4.810;2022-08-19T01:47:43;27.35;;;17.08;;
37527;SDS011;23372;52.050;4.810;2022-08-19T01:50:10;30.75;;;18.98;;
37527;SDS011;23372;52.050;4.810;2022-08-19T01:52:37;26.55;;;18.40;;
37527;SDS011;23372;52.050;4.810;2022-08-19T01:55:05;27.60;;;18.48;;
37527;SDS011;23372;52.050;4.810;2022-08-19T01:57:32;29.08;;;19.85;;
37527;SDS011;23372;52.050;4.810;2022-08-19T01:59:58;28.63;;;18.40;;
37527;SDS011;23372;52.050;4.810;2022-08-19T02:02:25;26.48;;;18.15;;
37527;SDS011;23372;52.050;4.810;2022-08-19T02:04:51;30.23;;;18.75;;
37527;SDS011;23372;52.050;4.810;2022-08-19T02:07:18;31.65;;;18.83;;
37527;SDS011;23372;52.050;4.810;2022-08-19T02:09:46;24.63;;;17.63;;
37527;SDS011;23372;52.050;4.810;2022-08-19T02:12:12;28.13;;;17.92;;
37527;SDS011;23372;52.050;4.810;2022-08-19T02:14:39;25.60;;;17.40;;
37527;SDS011;23372;52.050;4.810;2022-08-19T02:17:04;25.80;;;16.55;;
37527;SDS011;23372;52.050;4.810;2022-08-19T02:19:30;27.08;;;18.10;;
37527;SDS011;23372;52.050;4.810;2022-08-19T02:21:57;29.63;;;17.80;;
37527;SDS011;23372;52.050;4.810;2022-08-19T02:24:23;25.70;;;17.30;;
37527;SDS011;23372;52.050;4.810;2022-08-19T02:26:49;29.17;;;17.73;;
37527;SDS011;23372;52.050;4.810;2022-08-19T02:29:16;27.30;;;16.33;;
37527;SDS011;23372;52.050;4.810;2022-08-19T02:31:41;25.80;;;16.33;;
37527;SDS011;23372;52.050;4.810;2022-08-19T02:34:07;25.27;;;16.65;;
37527;SDS011;23372;52.050;4.810;2022-08-19T02:36:32;21.27;;;15.82;;
37527;SDS011;23372;52.050;4.810;2022-08-19T02:38:58;25.20;;;14.98;;
37527;SDS011;23372;52.050;4.810;2022-08-19T02:41:30;23.95;;;16.48;;
37527;SDS011;23372;52.050;4.810;2022-08-19T02:44:00;21.60;;;15.65;;
37527;SDS011;23372;52.050;4.810;2022-08-19T02:46:27;22.05;;;14.82;;
37527;SDS011;23372;52.050;4.810;2022-08-19T02:48:56;22.30;;;15.43;;
37527;SDS011;23372;52.050;4.810;2022-08-19T02:51:24;19.17;;;13.85;;
37527;SDS011;23372;52.050;4.810;2022-08-19T02:53:53;19.52;;;14.00;;
37527;SDS011;23372;52.050;4.810;2022-08-19T02:56:19;17.75;;;12.05;;
37527;SDS011;23372;52.050;4.810;2022-08-19T02:58:45;14.18;;;11.07;;
37527;SDS011;23372;52.050;4.810;2022-08-19T03:01:18;14.25;;;10.98;;
37527;SDS011;23372;52.050;4.810;2022-08-19T03:03:45;14.23;;;10.40;;
37527;SDS011;23372;52.050;4.810;2022-08-19T03:06:13;16.20;;;10.07;;
37527;SDS011;23372;52.050;4.810;2022-08-19T03:08:41;12.20;;;9.57;;
37527;SDS011;23372;52.050;4.810;2022-08-19T03:11:15;14.23;;;9.27;;
37527;SDS011;23372;52.050;4.810;2022-08-19T03:13:42;14.63;;;9.98;;
37527;SDS011;23372;52.050;4.810;2022-08-19T03:16:08;17.33;;;11.35;;
37527;SDS011;23372;52.050;4.810;2022-08-19T03:18:35;18.48;;;11.15;;
37527;SDS011;23372;52.050;4.810;2022-08-19T03:21:00;16.58;;;12.30;;
37527;SDS011;23372;52.050;4.810;2022-08-19T03:23:26;20.70;;;13.55;;
37527;SDS011;23372;52.050;4.810;2022-08-19T03:25:52;21.77;;;13.45;;
37527;SDS011;23372;52.050;4.810;2022-08-19T03:28:19;22.27;;;14.52;;
37527;SDS011;23372;52.050;4.810;2022-08-19T03:30:59;23.35;;;14.88;;
37527;SDS011;23372;52.050;4.810;2022-08-19T03:33:26;21.45;;;15.63;;
37527;SDS011;23372;52.050;4.810;2022-08-19T03:36:26;23.40;;;15.32;;
37527;SDS011;23372;52.050;4.810;2022-08-19T03:38:50;26.35;;;15.55;;
37527;SDS011;23372;52.050;4.810;2022-08-19T03:41:20;20.48;;;14.77;;
37527;SDS011;23372;52.050;4.810;2022-08-19T03:43:48;22.73;;;14.32;;
37527;SDS011;23372;52.050;4.810;2022-08-19T03:46:15;20.67;;;14.93;;
37527;SDS011;23372;52.050;4.810;2022-08-19T03:48:45;19.77;;;14.13;;
37527;SDS011;23372;52.050;4.810;2022-08-19T03:51:15;21.13;;;14.52;;
37527;SDS011;23372;52.050;4.810;2022-08-19T03:54:02;19.92;;;13.55;;
37527;SDS011;23372;52.050;4.810;2022-08-19T03:56:30;16.60;;;11.00;;
37527;SDS011;23372;52.050;4.810;2022-08-19T03:58:58;18.13;;;11.82;;
37527;SDS011;23372;52.050;4.810;2022-08-19T04:01:25;15.77;;;10.00;;
37527;SDS011;23372;52.050;4.810;2022-08-19T04:03:52;12.02;;;8.23;;
37527;SDS011;23372;52.050;4.810;2022-08-19T04:06:23;10.50;;;6.80;;
37527;SDS011;23372;52.050;4.810;2022-08-19T04:08:51;13.88;;;4.07;;
37527;SDS011;23372;52.050;4.810;2022-08-19T04:11:21;74.38;;;5.38;;
37527;SDS011;23372;52.050;4.810;2022-08-19T04:13:49;25.00;;;3.67;;
37527;SDS011;23372;52.050;4.810;2022-08-19T04:16:17;54.70;;;4.43;;
37527;SDS011;23372;52.050;4.810;2022-08-19T04:18:44;41.40;;;4.55;;
37527;SDS011;23372;52.050;4.810;2022-08-19T04:21:15;78.55;;;5.75;;
37527;SDS011;23372;52.050;4.810;2022-08-19T04:23:43;77.55;;;6.72;;
37527;SDS011;23372;52.050;4.810;2022-08-19T04:26:20;30.90;;;6.38;;
37527;SDS011;23372;52.050;4.810;2022-08-19T04:28:52;67.57;;;8.10;;
37527;SDS011;23372;52.050;4.810;2022-08-19T04:31:20;12.85;;;7.40;;
37527;SDS011;23372;52.050;4.810;2022-08-19T04:33:50;11.00;;;8.48;;
37527;SDS011;23372;52.050;4.810;2022-08-19T04:36:24;20.02;;;12.50;;
37527;SDS011;23372;52.050;4.810;2022-08-19T04:38:57;24.70;;;14.25;;
37527;SDS011;23372;52.050;4.810;2022-08-19T04:41:24;23.58;;;14.43;;
37527;SDS011;23372;52.050;4.810;2022-08-19T04:44:09;28.30;;;16.02;;
37527;SDS011;23372;52.050;4.810;2022-08-19T04:46:36;29.00;;;17.83;;
37527;SDS011;23372;52.050;4.810;2022-08-19T04:49:02;27.38;;;17.67;;
37527;SDS011;23372;52.050;4.810;2022-08-19T04:51:29;29.55;;;18.40;;
37527;SDS011;23372;52.050;4.810;2022-08-19T04:53:56;28.50;;;17.92;;
37527;SDS011;23372;52.050;4.810;2022-08-19T04:56:22;31.40;;;19.63;;
37527;SDS011;23372;52.050;4.810;2022-08-19T04:58:51;30.90;;;19.45;;
37527;SDS011;23372;52.050;4.810;2022-08-19T05:01:21;43.47;;;24.10;;
37527;SDS011;23372;52.050;4.810;2022-08-19T05:03:57;55.25;;;28.27;;
37527;SDS011;23372;52.050;4.810;2022-08-19T05:06:27;60.03;;;29.52;;
37527;SDS011;23372;52.050;4.810;2022-08-19T05:08:53;60.45;;;31.58;;
37527;SDS011;23372;52.050;4.810;2022-08-19T05:11:21;61.08;;;30.80;;
37527;SDS011;23372;52.050;4.810;2022-08-19T05:13:49;72.15;;;36.85;;
37527;SDS011;23372;52.050;4.810;2022-08-19T05:16:16;65.50;;;33.60;;
37527;SDS011;23372;52.050;4.810;2022-08-19T05:18:43;79.38;;;36.13;;
37527;SDS011;23372;52.050;4.810;2022-08-19T05:21:27;64.15;;;32.28;;
37527;SDS011;23372;52.050;4.810;2022-08-19T05:24:12;68.75;;;35.67;;
37527;SDS011;23372;52.050;4.810;2022-08-19T05:26:39;85.80;;;41.22;;
37527;SDS011;23372;52.050;4.810;2022-08-19T05:29:07;80.75;;;36.95;;
37527;SDS011;23372;52.050;4.810;2022-08-19T05:31:34;74.32;;;35.45;;
37527;SDS011;23372;52.050;4.810;2022-08-19T05:34:01;68.10;;;36.00;;
37527;SDS011;23372;52.050;4.810;2022-08-19T05:36:28;70.57;;;35.40;;
37527;SDS011;23372;52.050;4.810;2022-08-19T05:38:59;80.95;;;37.42;;
37527;SDS011;23372;52.050;4.810;2022-08-19T05:41:24;80.60;;;38.78;;
37527;SDS011;23372;52.050;4.810;2022-08-19T05:43:54;80.07;;;38.55;;
37527;SDS011;23372;52.050;4.810;2022-08-19T05:46:21;85.30;;;40.85;;
37527;SDS011;23372;52.050;4.810;2022-08-19T05:48:47;89.22;;;41.05;;
37527;SDS011;23372;52.050;4.810;2022-08-19T05:51:13;78.20;;;39.50;;
37527;SDS011;23372;52.050;4.810;2022-08-19T05:53:40;81.70;;;40.05;;
37527;SDS011;23372;52.050;4.810;2022-08-19T05:56:05;77.00;;;38.72;;
37527;SDS011;23372;52.050;4.810;2022-08-19T05:58:36;83.97;;;41.83;;
37527;SDS011;23372;52.050;4.810;2022-08-19T06:01:04;83.43;;;40.33;;
37527;SDS011;23372;52.050;4.810;2022-08-19T06:03:35;88.43;;;40.88;;
37527;SDS011;23372;52.050;4.810;2022-08-19T06:06:02;92.30;;;41.15;;
37527;SDS011;23372;52.050;4.810;2022-08-19T06:08:29;81.63;;;39.63;;
37527;SDS011;23372;52.050;4.810;2022-08-19T06:10:55;82.20;;;41.40;;
37527;SDS011;23372;52.050;4.810;2022-08-19T06:13:21;87.28;;;45.53;;
37527;SDS011;23372;52.050;4.810;2022-08-19T06:15:48;81.40;;;43.40;;
37527;SDS011;23372;52.050;4.810;2022-08-19T06:18:14;78.72;;;40.70;;
37527;SDS011;23372;52.050;4.810;2022-08-19T06:20:40;73.90;;;39.80;;
37527;SDS011;23372;52.050;4.810;2022-08-19T06:23:06;76.38;;;40.13;;
37527;SDS011;23372;52.050;4.810;2022-08-19T06:25:33;75.95;;;39.83;;
37527;SDS011;23372;52.050;4.810;2022-08-19T06:27:59;67.78;;;38.65;;
37527;SDS011;23372;52.050;4.810;2022-08-19T06:30:24;73.45;;;38.45;;
37527;SDS011;23372;52.050;4.810;2022-08-19T06:32:50;74.22;;;39.03;;
37527;SDS011;23372;52.050;4.810;2022-08-19T06:35:15;70.18;;;39.42;;
37527;SDS011;23372;52.050;4.810;2022-08-19T06:37:41;76.72;;;38.78;;
37527;SDS011;23372;52.050;4.810;2022-08-19T06:40:07;72.10;;;37.10;;
37527;SDS011;23372;52.050;4.810;2022-08-19T06:42:34;69.32;;;38.30;;
37527;SDS011;23372;52.050;4.810;2022-08-19T06:45:00;70.82;;;37.88;;
37527;SDS011;23372;52.050;4.810;2022-08-19T06:47:29;70.40;;;36.17;;
37527;SDS011;23372;52.050;4.810;2022-08-19T06:49:56;69.13;;;36.70;;
37527;SDS011;23372;52.050;4.810;2022-08-19T06:52:26;74.10;;;36.80;;
37527;SDS011;23372;52.050;4.810;2022-08-19T06:54:52;74.95;;;38.90;;
37527;SDS011;23372;52.050;4.810;2022-08-19T06:57:20;72.93;;;36.20;;
37527;SDS011;23372;52.050;4.810;2022-08-19T06:59:46;72.07;;;37.80;;
37527;SDS011;23372;52.050;4.810;2022-08-19T07:02:12;65.22;;;36.45;;
37527;SDS011;23372;52.050;4.810;2022-08-19T07:04:37;65.95;;;35.83;;
37527;SDS011;23372;52.050;4.810;2022-08-19T07:07:11;65.03;;;36.40;;
37527;SDS011;23372;52.050;4.810;2022-08-19T07:09:39;67.50;;;35.78;;
37527;SDS011;23372;52.050;4.810;2022-08-19T07:12:08;64.32;;;35.50;;
37527;SDS011;23372;52.050;4.810;2022-08-19T07:14:35;56.63;;;34.33;;
37527;SDS011;23372;52.050;4.810;2022-08-19T07:17:03;62.63;;;32.58;;
37527;SDS011;23372;52.050;4.810;2022-08-19T07:19:34;64.47;;;35.30;;
37527;SDS011;23372;52.050;4.810;2022-08-19T07:22:01;62.03;;;33.70;;
37527;SDS011;23372;52.050;4.810;2022-08-19T07:24:29;56.38;;;31.63;;
37527;SDS011;23372;52.050;4.810;2022-08-19T07:26:56;63.90;;;34.10;;
37527;SDS011;23372;52.050;4.810;2022-08-19T07:29:25;55.53;;;31.98;;
37527;SDS011;23372;52.050;4.810;2022-08-19T07:31:52;59.95;;;34.60;;
37527;SDS011;23372;52.050;4.810;2022-08-19T07:34:21;61.25;;;33.88;;
37527;SDS011;23372;52.050;4.810;2022-08-19T07:36:48;55.13;;;34.33;;
37527;SDS011;23372;52.050;4.810;2022-08-19T07:39:15;59.15;;;34.80;;
37527;SDS011;23372;52.050;4.810;2022-08-19T07:41:46;57.63;;;34.08;;
37527;SDS011;23372;52.050;4.810;2022-08-19T07:44:12;53.95;;;34.72;;
37527;SDS011;23372;52.050;4.810;2022-08-19T07:46:39;61.70;;;36.88;;
37527;SDS011;23372;52.050;4.810;2022-08-19T07:49:06;51.97;;;32.10;;
37527;SDS011;23372;52.050;4.810;2022-08-19T07:51:33;44.45;;;30.33;;
37527;SDS011;23372;52.050;4.810;2022-08-19T07:53:59;47.85;;;29.90;;
37527;SDS011;23372;52.050;4.810;2022-08-19T07:56:25;51.33;;;31.52;;
37527;SDS011;23372;52.050;4.810;2022-08-19T07:58:51;43.65;;;28.00;;
37527;SDS011;23372;52.050;4.810;2022-08-19T08:01:21;42.95;;;27.42;;
37527;SDS011;23372;52.050;4.810;2022-08-19T08:03:49;45.83;;;27.38;;
37527;SDS011;23372;52.050;4.810;2022-08-19T08:06:35;42.58;;;26.02;;
37527;SDS011;23372;52.050;4.810;2022-08-19T08:09:22;39.95;;;25.73;;
37527;SDS011;23372;52.050;4.810;2022-08-19T08:11:53;44.58;;;27.90;;
37527;SDS011;23372;52.050;4.810;2022-08-19T08:14:26;42.40;;;26.10;;
37527;SDS011;23372;52.050;4.810;2022-08-19T08:16:57;41.03;;;28.23;;
37527;SDS011;23372;52.050;4.810;2022-08-19T08:19:24;42.80;;;28.70;;
37527;SDS011;23372;52.050;4.810;2022-08-19T08:21:50;46.17;;;29.27;;
37527;SDS011;23372;52.050;4.810;2022-08-19T08:24:16;49.03;;;29.70;;
37527;SDS011;23372;52.050;4.810;2022-08-19T08:26:42;47.63;;;31.27;;
37527;SDS011;23372;52.050;4.810;2022-08-19T08:29:09;45.70;;;30.05;;
37527;SDS011;23372;52.050;4.810;2022-08-19T08:31:39;42.15;;;29.65;;
37527;SDS011;23372;52.050;4.810;2022-08-19T08:34:06;36.90;;;25.20;;
37527;SDS011;23372;52.050;4.810;2022-08-19T08:36:32;33.78;;;23.63;;
37527;SDS011;23372;52.050;4.810;2022-08-19T08:39:06;34.97;;;23.55;;
37527;SDS011;23372;52.050;4.810;2022-08-19T08:41:39;26.30;;;20.83;;
37527;SDS011;23372;52.050;4.810;2022-08-19T08:44:12;34.58;;;21.27;;
37527;SDS011;23372;52.050;4.810;2022-08-19T08:46:46;31.98;;;20.25;;
37527;SDS011;23372;52.050;4.810;2022-08-19T08:49:36;26.25;;;18.92;;
37527;SDS011;23372;52.050;4.810;2022-08-19T08:52:22;32.63;;;21.55;;
37527;SDS011;23372;52.050;4.810;2022-08-19T08:54:52;34.08;;;22.25;;
37527;SDS011;23372;52.050;4.810;2022-08-19T08:57:23;36.60;;;22.98;;
37527;SDS011;23372;52.050;4.810;2022-08-19T08:59:57;37.88;;;25.10;;
37527;SDS011;23372;52.050;4.810;2022-08-19T09:02:28;34.60;;;24.25;;
37527;SDS011;23372;52.050;4.810;2022-08-19T09:04:54;40.03;;;26.02;;
37527;SDS011;23372;52.050;4.810;2022-08-19T09:07:26;35.53;;;25.33;;
37527;SDS011;23372;52.050;4.810;2022-08-19T09:11:08;39.40;;;26.25;;
37527;SDS011;23372;52.050;4.810;2022-08-19T09:15:42;41.60;;;26.92;;
37527;SDS011;23372;52.050;4.810;2022-08-19T09:18:13;46.03;;;28.38;;
37527;SDS011;23372;52.050;4.810;2022-08-19T09:20:41;41.88;;;28.73;;
37527;SDS011;23372;52.050;4.810;2022-08-19T09:23:07;42.17;;;28.60;;
37527;SDS011;23372;52.050;4.810;2022-08-19T09:25:33;40.45;;;27.50;;
37527;SDS011;23372;52.050;4.810;2022-08-19T09:27:59;40.05;;;26.85;;
37527;SDS011;23372;52.050;4.810;2022-08-19T09:30:28;39.15;;;26.65;;
37527;SDS011;23372;52.050;4.810;2022-08-19T09:32:57;37.20;;;27.10;;
37527;SDS011;23372;52.050;4.810;2022-08-19T09:35:25;41.50;;;27.38;;
37527;SDS011;23372;52.050;4.810;2022-08-19T09:37:53;39.60;;;26.45;;
37527;SDS011;23372;52.050;4.810;2022-08-19T09:40:21;41.75;;;27.10;;
37527;SDS011;23372;52.050;4.810;2022-08-19T09:42:47;50.70;;;27.67;;
37527;SDS011;23372;52.050;4.810;2022-08-19T09:45:14;37.30;;;27.42;;
37527;SDS011;23372;52.050;4.810;2022-08-19T09:47:41;35.58;;;25.75;;
37527;SDS011;23372;52.050;4.810;2022-08-19T09:50:08;36.97;;;26.63;;
37527;SDS011;23372;52.050;4.810;2022-08-19T09:52:35;35.55;;;24.95;;
37527;SDS011;23372;52.050;4.810;2022-08-19T09:55:11;36.35;;;25.50;;
37527;SDS011;23372;52.050;4.810;2022-08-19T09:57:37;35.22;;;24.42;;
37527;SDS011;23372;52.050;4.810;2022-08-19T10:00:04;32.15;;;24.75;;
37527;SDS011;23372;52.050;4.810;2022-08-19T10:02:32;37.72;;;23.70;;
37527;SDS011;23372;52.050;4.810;2022-08-19T10:04:57;31.35;;;23.80;;
37527;SDS011;23372;52.050;4.810;2022-08-19T10:07:42;30.00;;;22.75;;
37527;SDS011;23372;52.050;4.810;2022-08-19T10:10:07;33.72;;;22.85;;
37527;SDS011;23372;52.050;4.810;2022-08-19T10:12:34;32.05;;;23.38;;
37527;SDS011;23372;52.050;4.810;2022-08-19T10:15:00;34.50;;;23.25;;
37527;SDS011;23372;52.050;4.810;2022-08-19T10:17:26;33.17;;;23.45;;
37527;SDS011;23372;52.050;4.810;2022-08-19T10:19:52;34.55;;;22.27;;
37527;SDS011;23372;52.050;4.810;2022-08-19T10:22:18;28.58;;;22.75;;
37527;SDS011;23372;52.050;4.810;2022-08-19T10:24:45;32.63;;;22.23;;
37527;SDS011;23372;52.050;4.810;2022-08-19T10:27:11;29.20;;;21.90;;
37527;SDS011;23372;52.050;4.810;2022-08-19T10:29:38;30.02;;;22.38;;
37527;SDS011;23372;52.050;4.810;2022-08-19T10:32:04;32.22;;;21.50;;
37527;SDS011;23372;52.050;4.810;2022-08-19T10:34:32;28.33;;;21.10;;
37527;SDS011;23372;52.050;4.810;2022-08-19T10:36:58;30.85;;;20.92;;
37527;SDS011;23372;52.050;4.810;2022-08-19T10:39:25;28.67;;;18.85;;
37527;SDS011;23372;52.050;4.810;2022-08-19T10:41:53;26.98;;;19.75;;
37527;SDS011;23372;52.050;4.810;2022-08-19T10:44:21;24.77;;;17.73;;
37527;SDS011;23372;52.050;4.810;2022-08-19T10:46:48;28.55;;;17.40;;
37527;SDS011;23372;52.050;4.810;2022-08-19T10:49:13;28.85;;;18.60;;
37527;SDS011;23372;52.050;4.810;2022-08-19T10:51:39;21.17;;;17.13;;
37527;SDS011;23372;52.050;4.810;2022-08-19T10:54:24;23.23;;;16.27;;
37527;SDS011;23372;52.050;4.810;2022-08-19T10:57:10;24.42;;;15.85;;
37527;SDS011;23372;52.050;4.810;2022-08-19T10:59:35;22.40;;;16.17;;
37527;SDS011;23372;52.050;4.810;2022-08-19T11:02:02;26.90;;;16.27;;
37527;SDS011;23372;52.050;4.810;2022-08-19T11:04:29;18.10;;;13.52;;
37527;SDS011;23372;52.050;4.810;2022-08-19T11:06:56;20.38;;;14.85;;
37527;SDS011;23372;52.050;4.810;2022-08-19T11:09:23;21.58;;;14.10;;
37527;SDS011;23372;52.050;4.810;2022-08-19T11:11:50;18.48;;;11.80;;
37527;SDS011;23372;52.050;4.810;2022-08-19T11:14:18;18.52;;;11.48;;
37527;SDS011;23372;52.050;4.810;2022-08-19T11:16:46;17.90;;;11.48;;
37527;SDS011;23372;52.050;4.810;2022-08-19T11:19:12;17.02;;;10.88;;
37527;SDS011;23372;52.050;4.810;2022-08-19T11:21:41;16.10;;;11.52;;
37527;SDS011;23372;52.050;4.810;2022-08-19T11:24:10;21.17;;;12.00;;
37527;SDS011;23372;52.050;4.810;2022-08-19T11:26:38;15.38;;;10.57;;
37527;SDS011;23372;52.050;4.810;2022-08-19T11:29:05;16.20;;;10.50;;
37527;SDS011;23372;52.050;4.810;2022-08-19T11:31:36;17.05;;;10.48;;
37527;SDS011;23372;52.050;4.810;2022-08-19T11:34:04;21.55;;;9.60;;
37527;SDS011;23372;52.050;4.810;2022-08-19T11:36:31;13.90;;;9.27;;
37527;SDS011;23372;52.050;4.810;2022-08-19T11:39:00;15.15;;;9.23;;
37527;SDS011;23372;52.050;4.810;2022-08-19T11:41:26;17.70;;;10.80;;
37527;SDS011;23372;52.050;4.810;2022-08-19T11:43:52;13.48;;;8.27;;
37527;SDS011;23372;52.050;4.810;2022-08-19T11:46:20;13.27;;;10.07;;
37527;SDS011;23372;52.050;4.810;2022-08-19T11:48:47;11.13;;;8.30;;
37527;SDS011;23372;52.050;4.810;2022-08-19T11:51:16;14.68;;;7.97;;
37527;SDS011;23372;52.050;4.810;2022-08-19T11:53:46;11.45;;;7.57;;
37527;SDS011;23372;52.050;4.810;2022-08-19T11:56:12;10.75;;;6.55;;
37527;SDS011;23372;52.050;4.810;2022-08-19T11:58:38;12.02;;;8.73;;
37527;SDS011;23372;52.050;4.810;2022-08-19T12:01:10;19.15;;;7.57;;
37527;SDS011;23372;52.050;4.810;2022-08-19T12:03:37;6.85;;;3.67;;
37527;SDS011;23372;52.050;4.810;2022-08-19T12:06:07;7.25;;;3.83;;
37527;SDS011;23372;52.050;4.810;2022-08-19T12:08:34;8.35;;;3.75;;
37527;SDS011;23372;52.050;4.810;2022-08-19T12:11:00;6.22;;;3.63;;
37527;SDS011;23372;52.050;4.810;2022-08-19T12:13:26;6.45;;;3.78;;
37527;SDS011;23372;52.050;4.810;2022-08-19T12:15:53;8.23;;;4.90;;
37527;SDS011;23372;52.050;4.810;2022-08-19T12:18:18;6.15;;;4.40;;
37527;SDS011;23372;52.050;4.810;2022-08-19T12:20:44;7.63;;;3.08;;
37527;SDS011;23372;52.050;4.810;2022-08-19T12:23:11;7.55;;;3.42;;
37527;SDS011;23372;52.050;4.810;2022-08-19T12:25:37;6.05;;;2.65;;
37527;SDS011;23372;52.050;4.810;2022-08-19T12:28:15;11.52;;;2.72;;
37527;SDS011;23372;52.050;4.810;2022-08-19T12:30:41;6.10;;;2.53;;
37527;SDS011;23372;52.050;4.810;2022-08-19T12:33:07;4.13;;;2.28;;
37527;SDS011;23372;52.050;4.810;2022-08-19T12:35:33;3.28;;;1.73;;
37527;SDS011;23372;52.050;4.810;2022-08-19T12:37:59;4.07;;;2.00;;
37527;SDS011;23372;52.050;4.810;2022-08-19T12:40:25;5.63;;;2.20;;
37527;SDS011;23372;52.050;4.810;2022-08-19T12:42:50;6.50;;;2.47;;
37527;SDS011;23372;52.050;4.810;2022-08-19T12:45:16;3.05;;;1.67;;
37527;SDS011;23372;52.050;4.810;2022-08-19T12:47:41;6.90;;;2.60;;
37527;SDS011;23372;52.050;4.810;2022-08-19T12:50:08;4.05;;;1.90;;
37527;SDS011;23372;52.050;4.810;2022-08-19T12:52:34;3.65;;;2.10;;
37527;SDS011;23372;52.050;4.810;2022-08-19T12:55:06;4.50;;;1.90;;
37527;SDS011;23372;52.050;4.810;2022-08-19T12:57:32;4.25;;;2.40;;
37527;SDS011;23372;52.050;4.810;2022-08-19T13:00:13;7.03;;;2.25;;
37527;SDS011;23372;52.050;4.810;2022-08-19T13:02:46;7.32;;;2.47;;
37527;SDS011;23372;52.050;4.810;2022-08-19T13:05:16;4.13;;;2.33;;
37527;SDS011;23372;52.050;4.810;2022-08-19T13:07:47;6.43;;;2.40;;
37527;SDS011;23372;52.050;4.810;2022-08-19T13:10:15;4.75;;;2.22;;
37527;SDS011;23372;52.050;4.810;2022-08-19T13:12:43;4.88;;;2.33;;
37527;SDS011;23372;52.050;4.810;2022-08-19T13:15:09;3.00;;;1.92;;
37527;SDS011;23372;52.050;4.810;2022-08-19T13:17:36;6.43;;;3.08;;
37527;SDS011;23372;52.050;4.810;2022-08-19T13:20:02;7.93;;;4.90;;
37527;SDS011;23372;52.050;4.810;2022-08-19T13:22:29;8.07;;;5.32;;
37527;SDS011;23372;52.050;4.810;2022-08-19T13:24:54;9.98;;;5.55;;
37527;SDS011;23372;52.050;4.810;2022-08-19T13:27:19;7.07;;;5.05;;
37527;SDS011;23372;52.050;4.810;2022-08-19T13:29:45;6.60;;;4.53;;
37527;SDS011;23372;52.050;4.810;2022-08-19T13:32:29;7.35;;;4.20;;
37527;SDS011;23372;52.050;4.810;2022-08-19T13:35:14;6.93;;;4.60;;
37527;SDS011;23372;52.050;4.810;2022-08-19T13:37:41;9.32;;;6.38;;
37527;SDS011;23372;52.050;4.810;2022-08-19T13:40:08;9.13;;;5.78;;
37527;SDS011;23372;52.050;4.810;2022-08-19T13:42:40;8.57;;;5.85;;
37527;SDS011;23372;52.050;4.810;2022-08-19T13:45:07;8.45;;;5.53;;
37527;SDS011;23372;52.050;4.810;2022-08-19T13:47:34;10.60;;;5.35;;
37527;SDS011;23372;52.050;4.810;2022-08-19T13:50:00;8.68;;;5.55;;
37527;SDS011;23372;52.050;4.810;2022-08-19T13:52:28;10.75;;;5.18;;
37527;SDS011;23372;52.050;4.810;2022-08-19T13:54:54;9.48;;;4.82;;
37527;SDS011;23372;52.050;4.810;2022-08-19T13:57:19;7.75;;;4.15;;
37527;SDS011;23372;52.050;4.810;2022-08-19T13:59:45;9.65;;;4.45;;
37527;SDS011;23372;52.050;4.810;2022-08-19T14:02:10;5.97;;;4.25;;
37527;SDS011;23372;52.050;4.810;2022-08-19T14:04:36;7.50;;;4.47;;
37527;SDS011;23372;52.050;4.810;2022-08-19T14:07:02;4.65;;;3.97;;
37527;SDS011;23372;52.050;4.810;2022-08-19T14:09:28;5.43;;;4.55;;
37527;SDS011;23372;52.050;4.810;2022-08-19T14:11:54;10.55;;;6.30;;
37527;SDS011;23372;52.050;4.810;2022-08-19T14:14:20;8.85;;;6.47;;
37527;SDS011;23372;52.050;4.810;2022-08-19T14:16:46;10.75;;;6.75;;
37527;SDS011;23372;52.050;4.810;2022-08-19T14:19:12;10.02;;;7.32;;
37527;SDS011;23372;52.050;4.810;2022-08-19T14:21:37;11.38;;;8.70;;
37527;SDS011;23372;52.050;4.810;2022-08-19T14:24:04;13.32;;;8.55;;
37527;SDS011;23372;52.050;4.810;2022-08-19T14:26:29;13.80;;;9.13;;
37527;SDS011;23372;52.050;4.810;2022-08-19T14:28:55;11.38;;;8.25;;
37527;SDS011;23372;52.050;4.810;2022-08-19T14:31:22;13.18;;;8.88;;
37527;SDS011;23372;52.050;4.810;2022-08-19T14:33:48;12.10;;;9.10;;
37527;SDS011;23372;52.050;4.810;2022-08-19T14:36:15;12.05;;;8.65;;
37527;SDS011;23372;52.050;4.810;2022-08-19T14:38:41;13.18;;;8.77;;